KDFW/DFW METAR and TAF weather

Enter ICAO airport designator
Station Type Date Time Source
KDFW METAR 2021/05/11 16:26 UTC NOAA

KDFW 111626Z 32012KT 1/2SM R17C/5000VP6000FT -DZ OVC006 15/14 A3008 RMK AO2 SFC VIS 1 1/4 DZB25 PRESRR P0000 T01500144


Station Type Date Time Source
KDFW Decoded METAR 2021/05/11 16:26 UTC NOAA

DALLAS/FT. WORTH INTERNATIONAL AIRPORT , TX, United States (KDFW) 32-54N 097-02W 174M
May 11, 2021 - 12:26 PM EDT / 2021.05.11 1626 UTC
Wind: from the NW (320 degrees) at 14 MPH (12 KT):0
Visibility: 1/2 mile(s):0
Sky conditions: overcast
Weather: light drizzle
Precipitation last hour: A trace
Temperature: 59.0 F (15.0 C)
Dew Point: 57.9 F (14.4 C)
Relative Humidity: 96%
Pressure (altimeter): 30.08 in. Hg (1018 hPa)
Pressure tendency: rising rapidly
ob: KDFW 111626Z 32012KT 1/2SM R17C/5000VP6000FT -DZ OVC006 15/14 A3008 RMK AO2 SFC VIS 1 1/4 DZB25 PRESRR P0000 T01500144
cycle: 16

Station Type Date Time Source
KDFW TAF 2021/05/11 15:03 UTC NOAA

TAF
AMD KDFW 111501Z 1115/1218 06006KT 3SM -DZ OVC005
TEMPO 1115/1116 1SM -DZ BR OVC003
FM111600 04008KT 5SM BR VCSH OVC006
FM111900 02009KT 5SM -SHRA VCTS OVC008CB
TEMPO 1119/1122 2SM -TSRA BKN004CB
FM112300 03011KT P6SM VCSH OVC008
FM120600 02011KT P6SM OVC006

Example: see airport list